Impacts METAR Board INFO
IDs:

KEWR - Newark Intl, NJ, US

Updated at: 1020 UTC 23 Jan 2018
Potential Impact None Slight Moderate High
Time22/22Z 22/23Z 23/00Z 23/01Z 23/02Z 23/03Z 23/04Z 23/05Z 23/06Z 23/07Z 23/08Z 23/09Z 23/10Z
VIS8 7 5 6 5 4 2 0.75 0.75 1.5 3 1.5 0.5
CIG110 120 110 200 7 7 6 3 2 4 5 3 2
CoverOVCOVCOVCOVCOVCOVCOVCOVCOVCOVCOVCOVCOVC
FltCatVFRVFRMVFRVFRIFRIFRIFRLIFRLIFRLIFRIFRLIFRLIFR
WX----BRBRBRBRBRBRBRBRBRBRFG
WDir30102020302010304040204030
WSpd5 8 10 8 9 6 7 6 4 4 4 5 6
WGst-- -- -- -- -- -- -- -- -- -- -- -- --
Raw hourly METARs
KEWR 222151Z 03005KT 8SM FEW050 SCT085 BKN110 OVC250 08/04 A3013 RMK AO2 RAB15E33 SLP203 P0000 T00780044
KEWR 222251Z 01008KT 7SM FEW050 SCT090 BKN120 OVC250 06/04 A3014 RMK AO2 SLP205 T00610039
KEWR 222351Z 02010KT 5SM BR FEW008 SCT090 OVC110 05/03 A3014 RMK AO2 SLP205 60000 T00500033 10106 20050 51003
KEWR 230051Z 02008KT 6SM BR FEW008 SCT110 BKN200 OVC250 05/03 A3013 RMK AO2 SLP201 T00500033
KEWR 230151Z 03009KT 5SM BR BKN007 BKN010 OVC120 05/03 A3011 RMK AO2 SLP195 T00500033
KEWR 230251Z 02006KT 4SM BR BKN007 BKN010 OVC120 04/03 A3009 RMK AO2 SLP188 T00440033 58018
KEWR 230351Z 01007KT 2SM BR OVC006 04/03 A3008 RMK AO2 SFC VIS 4 SLP184 T00440033
KEWR 230451Z 03006KT 3/4SM R04R/4000VP6000FT BR OVC003 04/03 A3006 RMK AO2 SLP179 T00390033 401060039
KEWR 230551Z 04004KT 3/4SM R04R/P6000FT BR OVC002 04/04 A3001 RMK AO2 SLP160 T00440039 10050 20039 58024
KEWR 230651Z 04004KT 1 1/2SM BR OVC004 04/04 A2999 RMK AO2 SLP154 T00440044
KEWR 230751Z 02004KT 3SM BR OVC005 04/03 A2995 RMK AO2 PRESFR SLP140 T00440033
KEWR 230851Z 04005KT 1 1/2SM BR OVC003 04/04 A2991 RMK AO2 SLP127 T00440039 56027
KEWR 230951Z 03006KT 1/2SM R04R/4500V5500FT FG OVC002 04/04 A2986 RMK AO2 SLP111 T00440039